world map with ABA marked

ABA - Airport

This information may not be accurate or current and is not valid for navigation or flight planning. No warranty of fitness for any purpose is made or implied.

flag of Khakasiyaflag of Russian Federation (Russia)

Donate via PayPal

Additional information is available on the NEW Great Circle Mapper

Location
City:  Abakan, Khakasiya, Russian Federation (Russia)
Name:Abakan Airport
ICAO / IATA:UNAA / ABA

Details
Type:Airport (Aerodrome, Airfield)
Use:Public/Civil
Latitude:53°44'24"N (53.740000)
Longitude:91°23'07"E (91.385278)
Elevation:830 ft (253 m)
Runways:1
Longest:10663 × 148 ft (3250 × 45 m)

Time
Timezone:UTC+7 (DST+8)

Weather
METAR:UNAA  041400Z 30002MPS 8000 NSC M32/M36 Q1033 R02/810054 NOSIG RMK QFE752
TAF:UNAA  041351Z 0415/0515 35003MPS 3100 BR FU SCT011= TAF UNBB 041400Z 0415/0515 35003MPS CAVOK TEMPO 0415/0418 3100 FU TEMPO 0418/0506 1000 BR FU SCT002

Related Locations
Nearby:
Farthest:PNT: 11748 mi / 18907 km
Puerto Natales [Teniente Julio Gallardo], MA, CL

Find:

   beyond  
but within

Other Information
Maps:
Sources:

  

Airport Diagram

Airport diagram for ABA

Airport diagram (OBSOLETE)

 


Great Circle Mapper   Great Circle Mapper
Great Circle Mapper FAQ   Great Circle Mapper FAQ
  Karl's Home Page
KLSē   KLSē Home
   GC on Facebook
Airlines of the World   Airlines of the World
Donate via PayPal


Copyright © 2004-2020, Karl L. Swartz. All rights reserved.
All trademarks mentioned herein belong to their respective owners.

Please see credits for attribution and copyright information.

Karl Swartz <karl@kls2.com>
  Powered by FreeBSD
Valid HTML 4.01!
Labeled with ICRA
hCard Microformat
Geo Microformat